createdAt,value
2022-12-31T00:01:48.751Z,14.97
2022-12-31T00:05:03.733Z,16.25
2022-12-31T00:08:05.822Z,15.40
2022-12-31T00:11:21.758Z,14.25
2022-12-31T00:14:30.596Z,14.87
2022-12-31T00:17:39.865Z,13.37
2022-12-31T00:20:49.397Z,17.37
2022-12-31T00:24:04.859Z,12.88
2022-12-31T00:27:13.420Z,12.40
2022-12-31T00:30:22.750Z,13.30
2022-12-31T00:33:37.772Z,14.60
2022-12-31T00:36:40.204Z,12.75
2022-12-31T00:39:54.760Z,12.85
2022-12-31T00:42:56.684Z,12.80
2022-12-31T00:46:12.813Z,12.13
2022-12-31T00:49:21.891Z,13.13
2022-12-31T00:52:31.350Z,13.05
2022-12-31T00:55:45.793Z,12.32
2022-12-31T00:58:48.316Z,12.30
2022-12-31T01:02:02.814Z,11.27
2022-12-31T01:05:05.342Z,12.73
2022-12-31T01:08:19.757Z,13.38
2022-12-31T01:11:23.107Z,11.80
2022-12-31T01:14:37.773Z,12.48
2022-12-31T01:17:39.658Z,12.67
2022-12-31T01:20:55.788Z,13.13
2022-12-31T01:24:11.792Z,12.70
2022-12-31T01:27:13.781Z,13.43
2022-12-31T01:30:28.753Z,14.13
2022-12-31T01:33:30.635Z,13.77
2022-12-31T01:36:46.767Z,13.73
2022-12-31T01:39:55.802Z,14.85
2022-12-31T01:43:20.460Z,14.60
2022-12-31T01:46:35.897Z,15.43
2022-12-31T01:49:51.407Z,14.67
2022-12-31T01:53:04.748Z,14.00
2022-12-31T01:56:20.764Z,14.32
2022-12-31T01:59:27.034Z,13.55
2022-12-31T02:02:43.806Z,15.73
2022-12-31T02:06:01.792Z,15.20
2022-12-31T02:09:11.783Z,16.37
2022-12-31T02:12:19.766Z,13.75
2022-12-31T02:15:52.824Z,14.63
2022-12-31T02:19:29.495Z,14.50
2022-12-31T02:23:08.841Z,14.37
2022-12-31T02:26:37.534Z,13.00
2022-12-31T02:30:06.951Z,14.23
2022-12-31T02:33:29.833Z,12.45
2022-12-31T02:36:50.800Z,13.25
2022-12-31T02:39:59.828Z,13.33
2022-12-31T02:43:15.211Z,12.37
2022-12-31T02:46:38.019Z,15.50
2022-12-31T02:50:09.820Z,12.25
2022-12-31T02:53:47.785Z,13.68
2022-12-31T02:57:19.796Z,14.20
2022-12-31T03:00:22.387Z,13.47
2022-12-31T03:03:37.893Z,13.98
2022-12-31T03:06:46.912Z,13.95
2022-12-31T03:09:56.795Z,13.73
2022-12-31T03:13:11.829Z,14.37
2022-12-31T03:16:20.503Z,12.97
2022-12-31T03:19:28.834Z,13.95
2022-12-31T03:22:47.896Z,13.52
2022-12-31T03:25:49.983Z,13.88
2022-12-31T03:29:04.818Z,13.93
2022-12-31T03:32:19.925Z,15.80
2022-12-31T03:35:22.246Z,14.52
2022-12-31T03:38:36.802Z,13.98
2022-12-31T03:41:45.849Z,16.27
2022-12-31T03:45:07.839Z,14.57
2022-12-31T03:48:19.099Z,14.73
2022-12-31T03:51:33.802Z,14.75
2022-12-31T03:54:42.583Z,14.60
2022-12-31T03:57:51.931Z,16.90
2022-12-31T04:01:06.975Z,15.97
2022-12-31T04:04:09.039Z,16.47
2022-12-31T04:07:23.841Z,15.88
2022-12-31T04:10:32.460Z,15.75
2022-12-31T04:13:46.821Z,16.33
2022-12-31T04:16:54.842Z,15.23
2022-12-31T04:20:04.378Z,15.97
2022-12-31T04:23:19.825Z,15.25
2022-12-31T04:26:29.104Z,14.93
2022-12-31T04:29:43.825Z,15.27
2022-12-31T04:32:45.703Z,15.97
2022-12-31T04:36:07.955Z,14.77
2022-12-31T04:39:10.335Z,15.13
2022-12-31T04:42:24.877Z,15.23
2022-12-31T04:45:39.869Z,15.40
2022-12-31T04:48:54.928Z,16.53
2022-12-31T04:51:57.140Z,16.37
2022-12-31T04:55:12.894Z,15.30
2022-12-31T04:58:15.073Z,16.95
2022-12-31T05:01:31.242Z,17.02
2022-12-31T05:04:33.243Z,15.40
2022-12-31T05:07:47.962Z,16.07
2022-12-31T05:10:49.905Z,17.02
2022-12-31T05:14:04.906Z,16.98
2022-12-31T05:17:13.619Z,17.30
2022-12-31T05:20:22.970Z,18.03
2022-12-31T05:23:37.881Z,16.10
2022-12-31T05:26:45.877Z,16.17
2022-12-31T05:30:00.856Z,15.32
2022-12-31T05:33:09.799Z,15.02
2022-12-31T05:36:17.941Z,16.00
2022-12-31T05:39:32.953Z,18.20
2022-12-31T05:42:41.900Z,18.00
2022-12-31T05:45:50.608Z,17.37
2022-12-31T05:49:00.916Z,18.35
2022-12-31T05:52:16.884Z,17.73
2022-12-31T05:55:24.849Z,17.50
2022-12-31T05:58:33.653Z,17.50
2022-12-31T06:01:48.871Z,17.12
2022-12-31T06:04:57.500Z,16.60
2022-12-31T06:08:05.929Z,16.07
2022-12-31T06:11:20.947Z,16.93
2022-12-31T06:14:29.680Z,17.62
2022-12-31T06:17:44.985Z,17.02
2022-12-31T06:20:53.527Z,16.77
2022-12-31T06:24:02.004Z,17.17
2022-12-31T06:27:10.561Z,17.73
2022-12-31T06:30:25.120Z,16.30
2022-12-31T06:33:27.323Z,16.73
2022-12-31T06:36:41.906Z,16.37
2022-12-31T06:39:44.017Z,15.63
2022-12-31T06:43:00.293Z,17.23
2022-12-31T06:46:04.245Z,15.23
2022-12-31T06:49:19.952Z,18.37
2022-12-31T06:52:22.036Z,15.38
2022-12-31T06:55:37.917Z,17.67
2022-12-31T06:58:47.867Z,17.03
2022-12-31T07:02:14.014Z,17.52
2022-12-31T07:05:39.365Z,17.12
2022-12-31T07:09:07.945Z,16.87
2022-12-31T07:12:36.332Z,18.53
2022-12-31T07:16:07.061Z,16.13
2022-12-31T07:19:44.430Z,17.23
2022-12-31T07:22:52.892Z,17.37
2022-12-31T07:26:24.921Z,17.48
2022-12-31T07:29:42.664Z,16.70
2022-12-31T07:33:18.044Z,15.80
2022-12-31T07:36:59.978Z,15.65
2022-12-31T07:40:24.929Z,16.75
2022-12-31T07:43:53.117Z,16.48
2022-12-31T07:47:03.967Z,17.20
2022-12-31T07:50:22.952Z,18.37
2022-12-31T07:53:25.605Z,16.33
2022-12-31T07:56:39.977Z,18.15
2022-12-31T08:00:11.955Z,17.58
2022-12-31T08:03:50.589Z,18.57
2022-12-31T08:07:19.128Z,16.97
2022-12-31T08:10:54.999Z,17.23
2022-12-31T08:14:10.976Z,19.08
2022-12-31T08:17:15.714Z,18.37
2022-12-31T08:20:29.953Z,18.70
2022-12-31T08:23:54.350Z,17.83
2022-12-31T08:27:29.989Z,18.75
2022-12-31T08:30:53.380Z,18.58
2022-12-31T08:34:22.990Z,19.37
2022-12-31T08:38:04.127Z,18.23
2022-12-31T08:41:28.373Z,19.80
2022-12-31T08:45:08.980Z,18.37
2022-12-31T08:48:39.020Z,18.00
2022-12-31T08:51:48.033Z,18.67
2022-12-31T08:54:57.009Z,19.60
2022-12-31T08:58:32.340Z,19.17
2022-12-31T09:02:09.072Z,20.60
2022-12-31T09:05:41.988Z,19.65
2022-12-31T09:09:03.812Z,19.67
2022-12-31T09:12:39.005Z,20.27
2022-12-31T09:16:09.041Z,21.67
2022-12-31T09:19:11.669Z,18.73
2022-12-31T09:22:26.983Z,19.40
2022-12-31T09:25:36.017Z,19.92
2022-12-31T09:29:08.054Z,19.47
2022-12-31T09:32:25.851Z,17.80
2022-12-31T09:35:58.986Z,18.40
2022-12-31T09:39:13.576Z,19.83
2022-12-31T09:42:52.979Z,19.37
2022-12-31T09:46:32.032Z,19.53
2022-12-31T09:50:08.118Z,19.30
2022-12-31T09:53:35.876Z,20.83
2022-12-31T09:56:58.796Z,19.62
2022-12-31T10:00:20.184Z,21.08
2022-12-31T10:04:01.035Z,20.50
2022-12-31T10:07:51.982Z,18.93
2022-12-31T10:11:06.118Z,19.08
2022-12-31T10:14:49.022Z,19.98
2022-12-31T10:18:10.845Z,19.65
2022-12-31T10:21:55.217Z,20.80
2022-12-31T10:25:38.451Z,19.37
2022-12-31T10:29:02.166Z,20.17
2022-12-31T10:32:33.034Z,21.55
2022-12-31T10:35:57.016Z,21.20
2022-12-31T10:39:30.104Z,20.10
2022-12-31T10:42:52.074Z,20.67
2022-12-31T10:46:42.102Z,20.73
2022-12-31T10:50:28.067Z,20.17
2022-12-31T10:53:52.206Z,21.95
2022-12-31T10:57:27.117Z,21.23
2022-12-31T11:00:53.580Z,28.33
2022-12-31T11:04:45.061Z,22.42
2022-12-31T11:08:17.122Z,24.20
2022-12-31T11:11:55.869Z,23.23
2022-12-31T11:15:24.056Z,23.80
2022-12-31T11:19:00.361Z,24.93
2022-12-31T11:22:32.073Z,24.63
2022-12-31T11:26:17.242Z,24.42
2022-12-31T11:29:59.119Z,23.35
2022-12-31T11:33:21.181Z,22.40
2022-12-31T11:36:56.162Z,24.77
2022-12-31T11:40:26.147Z,22.27
2022-12-31T11:43:56.089Z,22.00
2022-12-31T11:47:23.092Z,22.50
2022-12-31T11:50:55.215Z,21.57
2022-12-31T11:54:41.061Z,20.13
2022-12-31T11:57:52.471Z,22.08
2022-12-31T12:01:24.082Z,21.45
2022-12-31T12:04:32.921Z,21.48
2022-12-31T12:07:48.084Z,19.93
2022-12-31T12:11:00.080Z,21.53
2022-12-31T12:14:27.147Z,20.70
2022-12-31T12:17:39.296Z,23.20
2022-12-31T12:20:48.017Z,23.10
2022-12-31T12:24:08.093Z,24.17
2022-12-31T12:27:27.401Z,25.93
2022-12-31T12:30:45.220Z,22.58
2022-12-31T12:33:48.633Z,22.90
2022-12-31T12:37:03.101Z,23.40
2022-12-31T12:40:27.021Z,24.67
2022-12-31T12:43:42.129Z,23.20
2022-12-31T12:47:05.226Z,23.40
2022-12-31T12:50:23.244Z,23.60
2022-12-31T12:54:14.144Z,22.52
2022-12-31T12:57:32.345Z,23.33
2022-12-31T13:01:03.246Z,21.50
2022-12-31T13:04:36.182Z,21.87
2022-12-31T13:08:05.104Z,24.98
2022-12-31T13:12:07.326Z,25.42
2022-12-31T13:15:27.085Z,24.53
2022-12-31T13:19:00.329Z,24.80
2022-12-31T13:22:25.806Z,23.15
2022-12-31T13:25:50.165Z,25.05
2022-12-31T13:29:02.326Z,21.25
2022-12-31T13:32:15.206Z,22.07
2022-12-31T13:35:40.825Z,21.47
2022-12-31T13:38:59.169Z,21.08
2022-12-31T13:42:18.251Z,21.67
2022-12-31T13:45:42.057Z,22.10
2022-12-31T13:49:00.228Z,21.60
2022-12-31T13:52:35.160Z,21.97
2022-12-31T13:55:44.476Z,21.20
2022-12-31T13:59:08.149Z,22.73
2022-12-31T14:02:35.329Z,21.55
2022-12-31T14:05:53.117Z,19.47
2022-12-31T14:09:09.178Z,20.33
2022-12-31T14:12:37.864Z,20.58
2022-12-31T14:16:09.110Z,20.90
2022-12-31T14:19:41.185Z,20.05
2022-12-31T14:23:11.164Z,19.07
2022-12-31T14:26:25.121Z,19.40
2022-12-31T14:30:04.445Z,19.40
2022-12-31T14:33:37.207Z,19.60
2022-12-31T14:37:08.163Z,20.27
2022-12-31T14:40:41.844Z,20.70
2022-12-31T14:44:12.199Z,18.60
2022-12-31T14:47:35.994Z,17.98
2022-12-31T14:50:53.147Z,19.52
2022-12-31T14:53:56.586Z,18.08
2022-12-31T14:57:30.199Z,19.50
2022-12-31T15:00:42.156Z,19.93
2022-12-31T15:03:51.124Z,17.92
2022-12-31T15:07:13.284Z,18.80
2022-12-31T15:10:36.200Z,19.00
2022-12-31T15:14:14.168Z,19.83
2022-12-31T15:17:58.684Z,18.63
2022-12-31T15:21:31.239Z,18.62
2022-12-31T15:24:45.942Z,17.48
2022-12-31T15:27:55.170Z,17.62
2022-12-31T15:31:20.935Z,18.00
2022-12-31T15:34:42.315Z,17.03
2022-12-31T15:38:09.692Z,18.67
2022-12-31T15:42:10.187Z,16.92
2022-12-31T15:45:21.260Z,17.52
2022-12-31T15:48:52.293Z,16.43
2022-12-31T15:52:08.217Z,17.07
2022-12-31T15:55:39.211Z,17.52
2022-12-31T15:58:54.354Z,17.40
2022-12-31T16:02:03.343Z,16.08
2022-12-31T16:05:28.284Z,16.80
2022-12-31T16:08:41.169Z,17.93
2022-12-31T16:11:57.213Z,18.25
2022-12-31T16:15:07.117Z,17.33
2022-12-31T16:18:23.458Z,18.00
2022-12-31T16:21:43.210Z,17.53
2022-12-31T16:28:27.239Z,17.48
2022-12-31T16:31:42.220Z,17.37
2022-12-31T16:34:50.853Z,17.65
2022-12-31T16:38:17.311Z,17.07
2022-12-31T16:41:32.205Z,17.27
2022-12-31T16:44:34.079Z,16.98
2022-12-31T16:47:56.180Z,17.42
2022-12-31T16:50:58.662Z,18.42
2022-12-31T16:54:26.329Z,16.57
2022-12-31T16:57:35.145Z,18.30
2022-12-31T17:00:44.264Z,17.50
2022-12-31T17:03:58.220Z,18.20
2022-12-31T17:07:26.329Z,18.00
2022-12-31T17:10:36.210Z,23.77
2022-12-31T17:13:45.198Z,19.58
2022-12-31T17:17:07.969Z,19.73
2022-12-31T17:20:29.213Z,21.87
2022-12-31T17:23:39.569Z,20.73
2022-12-31T17:26:54.265Z,22.97
2022-12-31T17:30:19.185Z,21.48
2022-12-31T17:33:37.283Z,20.92
2022-12-31T17:36:57.241Z,20.45
2022-12-31T17:40:50.342Z,20.80
2022-12-31T17:43:59.363Z,21.23
2022-12-31T17:47:18.258Z,21.25
2022-12-31T17:50:28.206Z,22.25
2022-12-31T17:53:36.277Z,24.15
2022-12-31T17:56:45.689Z,24.27
2022-12-31T17:59:54.271Z,23.93
2022-12-31T18:03:03.727Z,23.67
2022-12-31T18:06:19.480Z,23.45
2022-12-31T18:09:34.377Z,22.80
2022-12-31T18:12:37.181Z,26.20
2022-12-31T18:15:52.462Z,23.50
2022-12-31T18:18:57.673Z,26.33
2022-12-31T18:22:12.349Z,27.80
2022-12-31T18:25:23.648Z,35.72
2022-12-31T18:28:32.500Z,27.30
2022-12-31T18:31:43.496Z,26.77
2022-12-31T18:34:52.289Z,26.90
2022-12-31T18:38:01.112Z,26.33
2022-12-31T18:41:10.299Z,26.83
2022-12-31T18:44:25.277Z,27.00
2022-12-31T18:47:37.696Z,27.80
2022-12-31T18:50:47.396Z,29.42
2022-12-31T18:53:56.645Z,31.23
2022-12-31T18:57:05.393Z,28.95
2022-12-31T19:00:14.784Z,28.92
2022-12-31T19:03:29.373Z,31.13
2022-12-31T19:06:44.434Z,32.40
2022-12-31T19:09:48.296Z,30.50
2022-12-31T19:13:05.318Z,29.85
2022-12-31T19:16:08.770Z,31.40
2022-12-31T19:19:24.423Z,33.33
2022-12-31T19:22:33.417Z,33.00
2022-12-31T19:25:42.321Z,34.20
2022-12-31T19:28:51.226Z,36.22
2022-12-31T19:32:00.336Z,37.45
2022-12-31T19:35:12.010Z,38.03
2022-12-31T19:38:33.455Z,38.83
2022-12-31T19:41:42.290Z,38.88
2022-12-31T19:44:58.884Z,36.95
2022-12-31T19:48:07.419Z,38.28
2022-12-31T19:51:18.569Z,35.13
2022-12-31T19:54:27.338Z,36.65
2022-12-31T19:57:42.318Z,34.53
2022-12-31T20:00:49.646Z,36.67
2022-12-31T20:04:08.377Z,37.10
2022-12-31T20:07:10.314Z,39.43
2022-12-31T20:10:27.333Z,39.83
2022-12-31T20:13:36.495Z,48.33
2022-12-31T20:16:45.065Z,46.25
2022-12-31T20:19:54.347Z,48.65
2022-12-31T20:23:03.235Z,50.03
2022-12-31T20:26:11.338Z,47.58
2022-12-31T20:29:26.463Z,45.97
2022-12-31T20:32:28.985Z,43.83
2022-12-31T20:35:43.319Z,41.85
2022-12-31T20:38:52.236Z,43.93
2022-12-31T20:42:00.366Z,44.47
2022-12-31T20:45:22.380Z,41.80
2022-12-31T20:48:31.368Z,51.80
2022-12-31T20:51:51.939Z,42.95
2022-12-31T20:55:01.149Z,43.33
2022-12-31T20:58:16.426Z,41.20
2022-12-31T21:01:21.233Z,42.97
2022-12-31T21:04:36.507Z,48.05
2022-12-31T21:07:38.420Z,52.08
2022-12-31T21:10:56.375Z,48.83
2022-12-31T21:14:05.374Z,42.65
2022-12-31T21:17:20.388Z,48.13
2022-12-31T21:20:23.087Z,43.95
2022-12-31T21:23:37.357Z,43.60
2022-12-31T21:26:52.415Z,43.23
2022-12-31T21:30:22.599Z,43.33
2022-12-31T21:33:31.357Z,45.90
2022-12-31T21:36:39.985Z,46.97
2022-12-31T21:39:55.383Z,48.28
2022-12-31T21:43:04.217Z,46.90
2022-12-31T21:46:19.441Z,47.30
2022-12-31T21:49:21.534Z,41.95
2022-12-31T21:52:36.395Z,43.75
2022-12-31T21:55:52.412Z,43.67
2022-12-31T21:59:07.610Z,38.67
2022-12-31T22:02:23.474Z,36.50
2022-12-31T22:05:32.418Z,38.17
2022-12-31T22:08:50.514Z,37.35
2022-12-31T22:11:59.579Z,37.47
2022-12-31T22:15:15.640Z,36.27
2022-12-31T22:18:24.506Z,34.72
2022-12-31T22:21:39.413Z,36.10
2022-12-31T22:24:41.206Z,34.22
2022-12-31T22:28:36.147Z,40.65
2022-12-31T22:31:29.459Z,35.23
2022-12-31T22:34:44.460Z,35.95
2022-12-31T22:37:58.499Z,34.75
2022-12-31T22:41:21.430Z,35.42
2022-12-31T22:44:23.361Z,39.15
2022-12-31T22:47:45.455Z,35.93
2022-12-31T22:51:02.398Z,36.03
2022-12-31T22:54:04.470Z,36.85
2022-12-31T22:57:20.318Z,36.40
2022-12-31T23:00:46.454Z,37.08
2022-12-31T23:04:02.600Z,96.87
2022-12-31T23:07:11.492Z,42.22
2022-12-31T23:10:20.132Z,36.05
2022-12-31T23:13:28.486Z,38.17
2022-12-31T23:16:43.482Z,38.33
2022-12-31T23:19:52.202Z,36.40
2022-12-31T23:23:00.414Z,38.00
2022-12-31T23:26:15.421Z,52.53
2022-12-31T23:29:19.658Z,74.60
2022-12-31T23:32:35.397Z,76.20
2022-12-31T23:35:37.466Z,81.00
2022-12-31T23:38:52.565Z,80.50
2022-12-31T23:41:54.509Z,77.25
2022-12-31T23:45:10.455Z,70.68
2022-12-31T23:48:19.131Z,71.87
2022-12-31T23:51:33.424Z,88.20
2022-12-31T23:54:35.400Z,72.82
2022-12-31T23:57:50.470Z,73.97
